createdAt,value
2022-10-28T00:00:50.347Z,95806.84
2022-10-28T00:03:19.809Z,95807.91
2022-10-28T00:05:47.732Z,95803.06
2022-10-28T00:08:15.349Z,95797.00
2022-10-28T00:10:43.046Z,95798.88
2022-10-28T00:13:13.159Z,95796.22
2022-10-28T00:15:40.813Z,95793.97
2022-10-28T00:18:08.845Z,95792.31
2022-10-28T00:20:37.887Z,95793.59
2022-10-28T00:23:05.549Z,95781.50
2022-10-28T00:25:33.249Z,95792.00
2022-10-28T00:28:00.908Z,95794.97
2022-10-28T00:30:28.581Z,95794.56
2022-10-28T00:32:56.431Z,95788.06
2022-10-28T00:35:24.587Z,95792.47
2022-10-28T00:37:55.252Z,95789.13
2022-10-28T00:40:23.167Z,95792.06
2022-10-28T00:42:51.778Z,95793.34
2022-10-28T00:45:19.825Z,95791.69
2022-10-28T00:47:52.549Z,95790.84
2022-10-28T00:50:30.371Z,95785.63
2022-10-28T00:53:01.945Z,95782.53
2022-10-28T00:55:30.179Z,95778.94
2022-10-28T00:57:58.741Z,95778.13
2022-10-28T01:00:27.097Z,95777.09
2022-10-28T01:02:54.938Z,95789.47
2022-10-28T01:05:23.934Z,95787.56
2022-10-28T01:07:53.076Z,95782.13
2022-10-28T01:10:24.488Z,95780.00
2022-10-28T01:12:59.913Z,95781.69
2022-10-28T01:15:35.102Z,95773.72
2022-10-28T01:18:10.286Z,95778.34
2022-10-28T01:21:07.495Z,95778.94
2022-10-28T01:23:39.264Z,95771.81
2022-10-28T01:26:30.977Z,95770.41
2022-10-28T01:29:20.873Z,95777.13
2022-10-28T01:31:51.667Z,95770.03
2022-10-28T01:34:25.485Z,95768.78
2022-10-28T01:36:59.187Z,95768.41
2022-10-28T01:39:32.315Z,95766.75
2022-10-28T01:42:15.495Z,95770.53
2022-10-28T01:44:49.353Z,95768.47
2022-10-28T01:47:21.693Z,95769.31
2022-10-28T01:49:53.566Z,95765.53
2022-10-28T01:52:23.551Z,95761.78
2022-10-28T01:54:53.777Z,95754.88
2022-10-28T01:57:23.731Z,95766.81
2022-10-28T01:59:51.510Z,95761.13
2022-10-28T02:02:20.588Z,95760.31
2022-10-28T02:04:48.219Z,95769.75
2022-10-28T02:07:16.202Z,95762.88
2022-10-28T02:09:57.069Z,95760.38
2022-10-28T02:12:29.125Z,95760.00
2022-10-28T02:15:12.184Z,95759.84
2022-10-28T02:17:50.050Z,95756.53
2022-10-28T02:20:22.565Z,95760.88
2022-10-28T02:22:52.756Z,95762.56
2022-10-28T02:25:22.481Z,95756.03
2022-10-28T02:27:55.146Z,95751.69
2022-10-28T02:30:25.494Z,95750.00
2022-10-28T02:32:58.298Z,95753.81
2022-10-28T02:35:29.349Z,95742.72
2022-10-28T02:37:57.946Z,95742.72
2022-10-28T02:40:27.579Z,95745.06
2022-10-28T02:42:57.471Z,95734.41
2022-10-28T02:45:28.354Z,95744.25
2022-10-28T02:47:59.768Z,95742.13
2022-10-28T02:50:32.686Z,95744.41
2022-10-28T02:53:01.634Z,95745.22
2022-10-28T02:55:33.974Z,95746.91
2022-10-28T02:58:01.666Z,95747.50
2022-10-28T03:00:29.345Z,95743.97
2022-10-28T03:02:58.429Z,95747.50
2022-10-28T03:05:26.064Z,95749.41
2022-10-28T03:07:54.058Z,95756.09
2022-10-28T03:10:22.005Z,95753.59
2022-10-28T03:12:49.654Z,95749.03
2022-10-28T03:15:17.349Z,95745.44
2022-10-28T03:17:44.992Z,95743.56
2022-10-28T03:20:14.443Z,95747.34
2022-10-28T03:22:44.053Z,95743.03
2022-10-28T03:25:11.809Z,95752.50
2022-10-28T03:27:41.112Z,95748.84
2022-10-28T03:30:09.669Z,95744.28
2022-10-28T03:32:37.270Z,95751.00
2022-10-28T03:35:05.913Z,95750.16
2022-10-28T03:37:34.899Z,95749.13
2022-10-28T03:40:02.983Z,95746.41
2022-10-28T03:42:30.643Z,95745.34
2022-10-28T03:44:58.286Z,95744.91
2022-10-28T03:47:25.907Z,95744.47
2022-10-28T03:49:53.576Z,95739.84
2022-10-28T03:52:21.217Z,95746.97
2022-10-28T03:54:50.295Z,95748.22
2022-10-28T03:57:17.920Z,95753.88
2022-10-28T03:59:45.653Z,95746.19
2022-10-28T04:02:15.585Z,95748.06
2022-10-28T04:04:43.407Z,95750.78
2022-10-28T04:07:11.054Z,95747.44
2022-10-28T04:09:38.773Z,95755.22
2022-10-28T04:12:08.496Z,95749.63
2022-10-28T04:14:36.117Z,95756.13
2022-10-28T04:17:03.766Z,95752.63
2022-10-28T04:19:31.378Z,95752.03
2022-10-28T04:21:58.993Z,95753.50
2022-10-28T04:24:26.580Z,95755.41
2022-10-28T04:26:54.376Z,95749.13
2022-10-28T04:29:23.432Z,95748.28
2022-10-28T04:31:52.287Z,95745.75
2022-10-28T04:34:20.215Z,95748.03
2022-10-28T04:36:47.853Z,95745.31
2022-10-28T04:39:15.620Z,95751.59
2022-10-28T04:41:43.295Z,95744.28
2022-10-28T04:44:10.973Z,95753.03
2022-10-28T04:46:40.054Z,95753.41
2022-10-28T04:49:07.754Z,95754.03
2022-10-28T04:51:35.472Z,95756.53
2022-10-28T04:54:03.430Z,95752.75
2022-10-28T04:56:33.230Z,95749.81
2022-10-28T04:59:01.113Z,95744.41
2022-10-28T05:01:28.864Z,95744.41
2022-10-28T05:03:58.214Z,95743.34
2022-10-28T05:06:25.924Z,95743.09
2022-10-28T05:08:53.605Z,95742.28
2022-10-28T05:11:21.380Z,95737.91
2022-10-28T05:13:49.103Z,95743.97
2022-10-28T05:16:16.967Z,95742.28
2022-10-28T05:21:13.784Z,95738.53
2022-10-28T05:23:41.419Z,95735.19
2022-10-28T05:26:09.132Z,95739.41
2022-10-28T05:28:36.789Z,95737.72
2022-10-28T05:31:04.676Z,95740.44
2022-10-28T05:33:33.535Z,95737.72
2022-10-28T05:36:01.570Z,95739.81
2022-10-28T05:38:30.720Z,95731.88
2022-10-28T05:40:58.431Z,95733.78
2022-10-28T05:43:26.138Z,95740.25
2022-10-28T05:45:54.196Z,95741.56
2022-10-28T05:48:21.935Z,95743.66
2022-10-28T05:50:50.265Z,95726.72
2022-10-28T05:53:18.176Z,95738.50
2022-10-28T05:55:47.949Z,95741.00
2022-10-28T05:58:16.516Z,95747.25
2022-10-28T06:00:44.174Z,95743.69
2022-10-28T06:03:12.760Z,95752.47
2022-10-28T06:05:42.661Z,95754.97
2022-10-28T06:08:12.007Z,95760.41
2022-10-28T06:10:39.732Z,95759.31
2022-10-28T06:13:08.096Z,95752.03
2022-10-28T06:15:35.814Z,95758.06
2022-10-28T06:18:03.676Z,95753.25
2022-10-28T06:20:31.631Z,95744.88
2022-10-28T06:22:59.434Z,95749.06
2022-10-28T06:25:27.101Z,95749.44
2022-10-28T06:27:55.811Z,95747.72
2022-10-28T06:30:26.435Z,95759.84
2022-10-28T06:32:56.362Z,95753.09
2022-10-28T06:35:24.183Z,95749.34
2022-10-28T06:37:54.603Z,95743.91
2022-10-28T06:40:22.804Z,95744.50
2022-10-28T06:42:57.013Z,95743.25
2022-10-28T06:45:26.354Z,95749.25
2022-10-28T06:47:59.122Z,95770.50
2022-10-28T06:50:27.350Z,95773.34
2022-10-28T06:52:57.059Z,95785.81
2022-10-28T06:55:25.148Z,95787.00
2022-10-28T06:57:53.196Z,95788.13
2022-10-28T07:00:21.690Z,95783.00
2022-10-28T07:02:53.963Z,95785.44
2022-10-28T07:05:22.270Z,95790.63
2022-10-28T07:07:50.078Z,95799.56
2022-10-28T07:10:17.837Z,95801.97
2022-10-28T07:12:45.537Z,95801.69
2022-10-28T07:15:13.221Z,95810.16
2022-10-28T07:17:40.891Z,95799.81
2022-10-28T07:20:11.828Z,95801.16
2022-10-28T07:22:39.577Z,95799.34
2022-10-28T07:25:08.447Z,95802.72
2022-10-28T07:27:36.097Z,95803.34
2022-10-28T07:30:03.807Z,95800.44
2022-10-28T07:32:33.189Z,95806.31
2022-10-28T07:35:01.077Z,95807.56
2022-10-28T07:37:30.197Z,95806.91
2022-10-28T07:39:57.972Z,95813.34
2022-10-28T07:42:25.884Z,95806.72
2022-10-28T07:44:53.597Z,95806.34
2022-10-28T07:47:22.296Z,95804.31
2022-10-28T07:49:50.012Z,95811.31
2022-10-28T07:52:18.017Z,95806.75
2022-10-28T07:54:47.118Z,95799.34
2022-10-28T07:57:14.831Z,95806.69
2022-10-28T07:59:42.528Z,95804.19
2022-10-28T08:02:11.682Z,95795.34
2022-10-28T08:04:39.380Z,95799.66
2022-10-28T08:07:07.129Z,95796.28
2022-10-28T08:09:34.809Z,95795.56
2022-10-28T08:12:04.298Z,95793.66
2022-10-28T08:14:32.022Z,95803.28
2022-10-28T08:16:59.932Z,95798.97
2022-10-28T08:19:27.935Z,95798.56
2022-10-28T08:21:55.735Z,95795.56
2022-10-28T08:24:23.549Z,95792.91
2022-10-28T08:26:51.373Z,95791.94
2022-10-28T08:29:20.679Z,95791.44
2022-10-28T08:31:48.402Z,95791.53
2022-10-28T08:34:16.237Z,95789.13
2022-10-28T08:36:44.134Z,95801.22
2022-10-28T08:39:12.018Z,95798.66
2022-10-28T08:41:41.410Z,95790.59
2022-10-28T08:44:31.985Z,95797.81
2022-10-28T08:47:10.379Z,95793.31
2022-10-28T08:49:43.427Z,95795.97
2022-10-28T08:52:23.026Z,95800.53
2022-10-28T08:54:53.668Z,95800.41
2022-10-28T08:57:23.458Z,95807.97
2022-10-28T08:59:54.137Z,95812.66
2022-10-28T09:02:23.377Z,95809.72
2022-10-28T09:04:54.851Z,95806.53
2022-10-28T09:07:23.484Z,95805.53
2022-10-28T09:09:52.292Z,95805.63
2022-10-28T09:12:29.262Z,95802.50
2022-10-28T09:15:08.425Z,95799.34
2022-10-28T09:17:43.521Z,95802.31
2022-10-28T09:20:18.814Z,95806.56
2022-10-28T09:22:51.779Z,95807.47
2022-10-28T09:25:25.125Z,95807.25
2022-10-28T09:28:21.339Z,95808.06
2022-10-28T09:30:58.324Z,95802.63
2022-10-28T09:33:52.625Z,95805.53
2022-10-28T09:36:23.799Z,95800.44
2022-10-28T09:38:53.865Z,95795.53
2022-10-28T09:41:23.979Z,95797.88
2022-10-28T09:43:54.673Z,95796.66
2022-10-28T09:46:25.651Z,95794.78
2022-10-28T09:48:56.170Z,95794.88
2022-10-28T09:51:29.698Z,95788.56
2022-10-28T09:53:59.017Z,95789.16
2022-10-28T09:56:28.349Z,95791.97
2022-10-28T09:58:58.669Z,95793.69
2022-10-28T10:01:30.318Z,95792.31
2022-10-28T10:03:58.218Z,95805.25
2022-10-28T10:06:29.076Z,95789.28
2022-10-28T10:08:57.378Z,95798.63
2022-10-28T10:11:29.957Z,95798.59
2022-10-28T10:13:59.495Z,95802.97
2022-10-28T10:16:35.833Z,95795.50
2022-10-28T10:19:04.736Z,95795.44
2022-10-28T10:21:43.559Z,95790.22
2022-10-28T10:24:24.081Z,95790.13
2022-10-28T10:26:52.463Z,95794.56
2022-10-28T10:29:20.584Z,95788.41
2022-10-28T10:31:50.160Z,95789.41
2022-10-28T10:34:23.918Z,95784.88
2022-10-28T10:36:53.632Z,95783.63
2022-10-28T10:39:26.328Z,95786.53
2022-10-28T10:41:55.993Z,95783.38
2022-10-28T10:44:33.611Z,95782.38
2022-10-28T10:47:24.586Z,95779.16
2022-10-28T10:49:52.338Z,95774.63
2022-10-28T10:52:26.111Z,95775.53
2022-10-28T10:55:03.785Z,95773.59
2022-10-28T10:57:32.190Z,95766.03
2022-10-28T11:00:00.284Z,95766.06
2022-10-28T11:02:34.894Z,95766.19
2022-10-28T11:05:05.288Z,95765.22
2022-10-28T11:07:33.705Z,95760.22
2022-10-28T11:10:02.126Z,95763.06
2022-10-28T11:12:32.177Z,95748.97
2022-10-28T11:15:01.382Z,95749.84
2022-10-28T11:20:01.832Z,95744.22
2022-10-28T11:22:46.283Z,95738.16
2022-10-28T11:25:36.720Z,95741.03
2022-10-28T11:28:29.703Z,95736.59
2022-10-28T11:31:05.080Z,95728.78
2022-10-28T11:33:41.250Z,95732.16
2022-10-28T11:36:17.621Z,95725.16
2022-10-28T11:38:56.234Z,95723.81
2022-10-28T11:41:31.399Z,95720.88
2022-10-28T11:44:04.976Z,95715.50
2022-10-28T11:46:46.661Z,95714.38
2022-10-28T11:49:38.645Z,95706.09
2022-10-28T11:52:16.133Z,95704.25
2022-10-28T11:54:55.165Z,95689.63
2022-10-28T11:57:27.366Z,95697.63
2022-10-28T12:00:08.510Z,95696.59
2022-10-28T12:02:53.566Z,95694.19
2022-10-28T12:05:25.714Z,95691.09
2022-10-28T12:08:05.853Z,95688.03
2022-10-28T12:10:42.341Z,95695.81
2022-10-28T12:13:18.259Z,95693.84
2022-10-28T12:15:52.038Z,95689.91
2022-10-28T12:18:24.394Z,95690.44
2022-10-28T12:20:59.031Z,95688.16
2022-10-28T12:23:27.606Z,95691.75
2022-10-28T12:25:58.109Z,95685.88
2022-10-28T12:28:29.293Z,95683.63
2022-10-28T12:30:58.397Z,95686.69
2022-10-28T12:33:29.116Z,95687.16
2022-10-28T12:36:19.549Z,95684.38
2022-10-28T12:38:53.526Z,95684.75
2022-10-28T12:41:24.373Z,95679.63
2022-10-28T12:43:54.410Z,95682.59
2022-10-28T12:46:27.488Z,95689.16
2022-10-28T12:48:59.069Z,95678.59
2022-10-28T12:51:31.115Z,95687.13
2022-10-28T12:54:02.145Z,95693.69
2022-10-28T12:56:33.176Z,95685.03
2022-10-28T12:59:05.829Z,95685.03
2022-10-28T13:01:34.873Z,95687.81
2022-10-28T13:07:35.968Z,95688.03
2022-10-28T13:10:13.601Z,95689.69
2022-10-28T13:13:24.090Z,95686.38
2022-10-28T13:16:16.848Z,95690.63
2022-10-28T13:19:09.195Z,95682.59
2022-10-28T13:22:02.029Z,95682.22
2022-10-28T13:24:40.372Z,95689.81
2022-10-28T13:27:13.169Z,95675.81
2022-10-28T13:29:44.483Z,95680.31
2022-10-28T13:32:37.501Z,95677.63
2022-10-28T13:35:20.159Z,95672.69
2022-10-28T13:37:51.516Z,95667.50
2022-10-28T13:40:43.579Z,95667.88
2022-10-28T13:43:22.319Z,95666.66
2022-10-28T13:45:53.289Z,95661.59
2022-10-28T13:48:46.342Z,95666.84
2022-10-28T13:51:36.500Z,95667.69
2022-10-28T13:54:25.966Z,95673.25
2022-10-28T13:56:57.976Z,95670.97
2022-10-28T13:59:29.642Z,95665.41
2022-10-28T14:02:32.437Z,95673.75
2022-10-28T14:04:55.722Z,95678.50
2022-10-28T14:07:27.832Z,95676.34
2022-10-28T14:09:59.435Z,95675.34
2022-10-28T14:12:30.973Z,95675.34
2022-10-28T14:15:05.796Z,95666.50
2022-10-28T14:17:44.068Z,95668.13
2022-10-28T14:20:30.007Z,95665.88
2022-10-28T14:22:57.989Z,95663.19
2022-10-28T14:26:00.627Z,95664.84
2022-10-28T14:28:57.262Z,95668.75
2022-10-28T14:31:39.096Z,95673.28
2022-10-28T14:34:38.909Z,95671.31
2022-10-28T14:37:28.613Z,95670.00
2022-10-28T14:40:09.639Z,95669.50
2022-10-28T14:42:53.221Z,95671.44
2022-10-28T14:45:33.981Z,95672.09
2022-10-28T14:48:31.928Z,95669.75
2022-10-28T14:51:01.363Z,95669.13
2022-10-28T14:53:31.294Z,95668.81
2022-10-28T14:56:01.305Z,95669.13
2022-10-28T14:58:31.497Z,95667.22
2022-10-28T15:01:21.863Z,95675.91
2022-10-28T15:03:52.115Z,95666.16
2022-10-28T15:06:28.262Z,95663.97
2022-10-28T15:08:56.549Z,95672.69
2022-10-28T15:11:24.389Z,95669.09
2022-10-28T15:13:53.800Z,95671.91
2022-10-28T15:16:24.390Z,95660.41
2022-10-28T15:18:55.207Z,95666.72
2022-10-28T15:21:23.945Z,95661.09
2022-10-28T15:24:01.744Z,95671.59
2022-10-28T15:26:29.595Z,95665.63
2022-10-28T15:28:57.288Z,95662.69
2022-10-28T15:31:26.597Z,95670.56
2022-10-28T15:33:54.292Z,95674.28
2022-10-28T15:36:23.920Z,95671.06
2022-10-28T15:38:52.137Z,95666.78
2022-10-28T15:41:49.287Z,95670.31
2022-10-28T15:44:32.647Z,95668.78
2022-10-28T15:47:06.140Z,95673.28
2022-10-28T15:49:38.593Z,95668.97
2022-10-28T15:52:23.997Z,95679.28
2022-10-28T15:54:58.254Z,95670.81
2022-10-28T15:57:27.688Z,95673.91
2022-10-28T16:00:19.694Z,95675.97
2022-10-28T16:02:56.690Z,95667.72
2022-10-28T16:05:55.923Z,95673.16
2022-10-28T16:08:25.787Z,95673.72
2022-10-28T16:10:56.359Z,95676.03
2022-10-28T16:13:30.676Z,95675.81
2022-10-28T16:16:01.219Z,95668.13
2022-10-28T16:18:31.225Z,95673.69
2022-10-28T16:21:00.116Z,95668.22
2022-10-28T16:23:33.886Z,95681.25
2022-10-28T16:26:01.584Z,95680.22
2022-10-28T16:28:30.427Z,95674.69
2022-10-28T16:30:59.584Z,95678.06
2022-10-28T16:33:32.451Z,95672.25
2022-10-28T16:36:00.689Z,95670.63
2022-10-28T16:38:28.359Z,95676.16
2022-10-28T16:40:56.183Z,95672.84
2022-10-28T16:43:25.060Z,95677.34
2022-10-28T16:45:53.520Z,95676.25
2022-10-28T16:48:22.506Z,95676.81
2022-10-28T16:50:52.965Z,95676.28
2022-10-28T16:53:21.017Z,95682.34
2022-10-28T16:55:49.175Z,95680.16
2022-10-28T16:58:17.232Z,95690.91
2022-10-28T17:00:46.951Z,95681.22
2022-10-28T17:03:15.776Z,95678.47
2022-10-28T17:05:44.020Z,95683.44
2022-10-28T17:08:13.263Z,95687.81
2022-10-28T17:10:41.825Z,95688.09
2022-10-28T17:13:12.063Z,95690.31
2022-10-28T17:15:39.844Z,95689.47
2022-10-28T17:18:07.710Z,95695.81
2022-10-28T17:20:35.356Z,95689.16
2022-10-28T17:23:03.111Z,95690.56
2022-10-28T17:25:32.588Z,95694.13
2022-10-28T17:28:00.386Z,95693.56
2022-10-28T17:30:28.227Z,95692.16
2022-10-28T17:32:55.999Z,95699.31
2022-10-28T17:35:23.771Z,95687.16
2022-10-28T17:37:51.634Z,95695.41
2022-10-28T17:40:19.614Z,95694.03
2022-10-28T17:42:48.779Z,95699.22
2022-10-28T17:45:19.556Z,95696.47
2022-10-28T17:47:49.764Z,95703.00
2022-10-28T17:50:17.947Z,95705.44
2022-10-28T17:52:45.640Z,95697.44
2022-10-28T17:55:13.589Z,95700.19
2022-10-28T17:57:41.373Z,95705.94
2022-10-28T18:00:12.197Z,95707.84
2022-10-28T18:02:40.513Z,95710.84
2022-10-28T18:05:09.144Z,95707.53
2022-10-28T18:07:36.904Z,95701.47
2022-10-28T18:10:05.195Z,95712.72
2022-10-28T18:12:32.924Z,95701.72
2022-10-28T18:15:00.645Z,95707.75
2022-10-28T18:17:29.723Z,95708.78
2022-10-28T18:19:57.750Z,95702.16
2022-10-28T18:24:54.054Z,95711.16
2022-10-28T18:27:21.747Z,95707.31
2022-10-28T18:29:49.358Z,95705.38
2022-10-28T18:32:17.523Z,95710.50
2022-10-28T18:34:46.614Z,95705.84
2022-10-28T18:37:14.386Z,95700.84
2022-10-28T18:39:42.028Z,95704.69
2022-10-28T18:42:12.282Z,95710.91
2022-10-28T18:44:41.451Z,95709.59
2022-10-28T18:47:09.193Z,95717.56
2022-10-28T18:49:36.863Z,95718.91
2022-10-28T18:52:06.081Z,95717.31
2022-10-28T18:54:34.457Z,95719.19
2022-10-28T18:57:02.130Z,95712.88
2022-10-28T18:59:29.776Z,95716.72
2022-10-28T19:01:57.688Z,95717.78
2022-10-28T19:04:25.576Z,95719.41
2022-10-28T19:06:53.227Z,95722.69
2022-10-28T19:09:22.276Z,95722.97
2022-10-28T19:11:50.011Z,95719.38
2022-10-28T19:14:17.896Z,95717.75
2022-10-28T19:16:45.576Z,95715.50
2022-10-28T19:19:13.306Z,95721.25
2022-10-28T19:21:40.989Z,95717.06
2022-10-28T19:24:09.304Z,95720.09
2022-10-28T19:26:39.414Z,95717.34
2022-10-28T19:29:07.186Z,95728.88
2022-10-28T19:31:36.838Z,95720.28
2022-10-28T19:34:04.512Z,95723.34
2022-10-28T19:36:32.154Z,95722.75
2022-10-28T19:38:59.912Z,95725.75
2022-10-28T19:41:29.096Z,95724.09
2022-10-28T19:43:59.445Z,95717.47
2022-10-28T19:46:27.903Z,95721.81
2022-10-28T19:48:57.313Z,95719.84
2022-10-28T19:51:27.292Z,95719.84
2022-10-28T19:53:56.815Z,95726.38
2022-10-28T19:56:24.811Z,95722.66
2022-10-28T19:58:54.610Z,95724.28
2022-10-28T20:01:24.993Z,95722.13
2022-10-28T20:03:53.762Z,95723.78
2022-10-28T20:06:23.276Z,95723.53
2022-10-28T20:08:51.194Z,95736.16
2022-10-28T20:11:24.877Z,95725.44
2022-10-28T20:13:54.781Z,95734.25
2022-10-28T20:16:24.657Z,95727.63
2022-10-28T20:18:52.287Z,95728.66
2022-10-28T20:21:21.323Z,95730.31
2022-10-28T20:26:18.868Z,95731.13
2022-10-28T20:28:46.918Z,95732.47
2022-10-28T20:31:15.787Z,95729.72
2022-10-28T20:33:45.683Z,95730.56
2022-10-28T20:36:23.264Z,95731.91
2022-10-28T20:38:54.253Z,95727.78
2022-10-28T20:41:22.483Z,95730.78
2022-10-28T20:43:51.326Z,95735.16
2022-10-28T20:46:20.284Z,95731.84
2022-10-28T20:48:50.124Z,95732.59
2022-10-28T20:51:18.030Z,95736.97
2022-10-28T20:53:45.735Z,95729.56
2022-10-28T20:56:16.890Z,95727.38
2022-10-28T20:58:44.636Z,95722.75
2022-10-28T21:01:14.674Z,95723.50
2022-10-28T21:03:42.573Z,95728.94
2022-10-28T21:08:45.115Z,95732.63
2022-10-28T21:11:14.725Z,95728.50
2022-10-28T21:13:42.972Z,95736.13
2022-10-28T21:16:12.766Z,95736.56
2022-10-28T21:18:41.259Z,95726.88
2022-10-28T21:21:08.975Z,95738.34
2022-10-28T21:23:38.063Z,95734.53
2022-10-28T21:26:07.209Z,95739.16
2022-10-28T21:28:35.792Z,95726.22
2022-10-28T21:31:04.954Z,95727.31
2022-10-28T21:33:32.707Z,95730.88
2022-10-28T21:36:01.899Z,95732.22
2022-10-28T21:38:30.342Z,95727.22
2022-10-28T21:41:03.208Z,95732.72
2022-10-28T21:43:31.944Z,95727.53
2022-10-28T21:45:59.862Z,95731.34
2022-10-28T21:48:27.773Z,95732.72
2022-10-28T21:50:56.790Z,95734.28
2022-10-28T21:53:25.016Z,95729.31
2022-10-28T21:55:54.867Z,95724.09
2022-10-28T21:58:24.586Z,95725.91
2022-10-28T22:00:52.241Z,95720.13
2022-10-28T22:03:19.973Z,95722.28
2022-10-28T22:05:51.558Z,95727.44
2022-10-28T22:08:19.228Z,95722.16
2022-10-28T22:10:46.902Z,95718.47
2022-10-28T22:13:14.543Z,95717.66
2022-10-28T22:15:43.653Z,95716.16
2022-10-28T22:18:11.266Z,95721.06
2022-10-28T22:20:39.065Z,95712.53
2022-10-28T22:23:06.804Z,95712.53
2022-10-28T22:25:34.584Z,95723.47
2022-10-28T22:28:02.264Z,95720.34
2022-10-28T22:30:29.963Z,95717.34
2022-10-28T22:32:58.996Z,95717.25
2022-10-28T22:35:26.631Z,95722.16
2022-10-28T22:37:54.614Z,95719.91
2022-10-28T22:40:22.484Z,95714.69
2022-10-28T22:42:50.263Z,95723.66
2022-10-28T22:45:18.220Z,95726.78
2022-10-28T22:47:45.914Z,95726.19
2022-10-28T22:50:14.947Z,95720.53
2022-10-28T22:52:42.612Z,95725.59
2022-10-28T22:55:11.032Z,95725.69
2022-10-28T22:57:38.721Z,95724.53
2022-10-28T23:00:07.534Z,95724.44
2022-10-28T23:02:35.342Z,95713.38
2022-10-28T23:05:03.112Z,95722.69
2022-10-28T23:07:32.244Z,95717.69
2022-10-28T23:10:00.533Z,95713.53
2022-10-28T23:12:28.170Z,95710.47
2022-10-28T23:14:55.872Z,95715.69
2022-10-28T23:17:23.484Z,95712.72
2022-10-28T23:19:51.087Z,95718.19
2022-10-28T23:22:18.753Z,95717.69
2022-10-28T23:24:47.784Z,95715.44
2022-10-28T23:27:15.463Z,95715.59
2022-10-28T23:29:43.240Z,95710.84
2022-10-28T23:32:10.945Z,95716.84
2022-10-28T23:34:38.633Z,95722.28
2022-10-28T23:37:06.326Z,95722.88
2022-10-28T23:39:33.955Z,95714.56
2022-10-28T23:42:03.121Z,95711.22
2022-10-28T23:44:30.767Z,95709.84
2022-10-28T23:46:58.392Z,95712.22
2022-10-28T23:49:26.021Z,95707.47
2022-10-28T23:51:53.649Z,95715.91
2022-10-28T23:54:21.321Z,95718.06
2022-10-28T23:56:48.997Z,95720.31
2022-10-28T23:59:18.035Z,95724.34
